Time;durP1;ratioP1;P1;durP2;ratioP2;P2;SDS_P1;SDS_P2;PMS_P1;PMS_P2;Temp;Humidity;BMP_temperature;BMP_pressure;BME280_temperature;BME280_humidity;BME280_pressure;Samples;Min_cycle;Max_cycle;Signal;HPM_P1;HPM_P2
2022/12/26 00:00:07;;;;;;;43.78;14.07;;;;;;;;;;5159255;27;20044;-81
2022/12/26 00:02:34;;;;;;;75.50;14.68;;;;;;;;;;5159077;27;20047;-82
2022/12/26 00:05:01;;;;;;;42.08;13.75;;;;;;;;;;5160371;27;20048;-82
2022/12/26 00:07:29;;;;;;;36.40;12.60;;;;;;;;;;5158606;27;20047;-82
2022/12/26 00:09:59;;;;;;;41.53;14.38;;;;;;;;;;5159095;27;20054;-83
2022/12/26 00:12:27;;;;;;;49.45;13.75;;;;;;;;;;5157621;27;20063;-82
2022/12/26 00:14:54;;;;;;;44.78;14.20;;;;;;;;;;5177282;27;20036;-83
2022/12/26 00:17:21;;;;;;;59.88;14.43;;;;;;;;;;5155782;27;20028;-83
2022/12/26 00:19:48;;;;;;;51.47;14.10;;;;;;;;;;5153014;27;20054;-83
2022/12/26 00:22:16;;;;;;;62.67;14.95;;;;;;;;;;5157648;27;20060;-82
2022/12/26 00:24:43;;;;;;;55.85;14.60;;;;;;;;;;5158574;27;20046;-83
2022/12/26 00:27:10;;;;;;;53.45;14.95;;;;;;;;;;5154655;27;20134;-83
2022/12/26 00:29:39;;;;;;;64.30;15.65;;;;;;;;;;5156055;27;20055;-82
2022/12/26 00:32:06;;;;;;;78.35;15.38;;;;;;;;;;5156752;27;20070;-83
2022/12/26 00:34:34;;;;;;;39.88;12.88;;;;;;;;;;5158691;27;20485;-83
2022/12/26 00:37:03;;;;;;;100.32;16.27;;;;;;;;;;5154641;27;20044;-83
2022/12/26 00:39:32;;;;;;;86.40;15.77;;;;;;;;;;5159684;27;20051;-82
2022/12/26 00:41:59;;;;;;;102.53;15.57;;;;;;;;;;5160148;27;20065;-83
2022/12/26 00:44:27;;;;;;;40.03;12.35;;;;;;;;;;5154066;27;20092;-83
2022/12/26 00:46:56;;;;;;;59.30;14.15;;;;;;;;;;5159623;27;20071;-83
2022/12/26 00:49:31;;;;;;;130.32;16.67;;;;;;;;;;5156849;27;20036;-83
2022/12/26 00:52:18;;;;;;;115.82;15.90;;;;;;;;;;5135655;27;20051;-83
2022/12/26 00:54:46;;;;;;;63.00;13.00;;;;;;;;;;5146568;27;20094;-83
2022/12/26 00:57:13;;;;;;;46.00;12.73;;;;;;;;;;5145957;27;20056;-83
2022/12/26 00:59:40;;;;;;;75.13;13.43;;;;;;;;;;5128435;27;20111;-83
2022/12/26 01:02:36;;;;;;;52.78;12.73;;;;;;;;;;5139965;27;20258;-83
2022/12/26 01:04:54;;;;;;;44.83;12.98;;;;;;;;;;5141375;27;20028;-83
2022/12/26 01:07:21;;;;;;;36.05;12.23;;;;;;;;;;5143344;27;20057;-83
2022/12/26 01:09:49;;;;;;;45.83;12.02;;;;;;;;;;5139767;27;20104;-83
2022/12/26 01:12:20;;;;;;;74.63;13.07;;;;;;;;;;5140485;27;20052;-83
2022/12/26 01:14:48;;;;;;;38.80;12.10;;;;;;;;;;5140043;27;20049;-83
2022/12/26 01:17:21;;;;;;;44.10;13.45;;;;;;;;;;5142433;27;20076;-83
2022/12/26 01:19:48;;;;;;;87.68;16.13;;;;;;;;;;5144556;27;20095;-82
2022/12/26 01:22:15;;;;;;;87.28;15.77;;;;;;;;;;5147695;27;20040;-83
2022/12/26 01:24:43;;;;;;;52.58;14.88;;;;;;;;;;5142903;27;20036;-83
2022/12/26 01:27:10;;;;;;;50.15;15.45;;;;;;;;;;5145231;27;20040;-83
2022/12/26 01:29:37;;;;;;;62.55;16.67;;;;;;;;;;5140478;27;20044;-83
2022/12/26 01:32:07;;;;;;;60.53;16.48;;;;;;;;;;5139399;27;20040;-83
2022/12/26 01:34:37;;;;;;;67.28;17.20;;;;;;;;;;5138262;27;20102;-82
2022/12/26 01:37:08;;;;;;;77.72;16.90;;;;;;;;;;5146052;27;20073;-83
2022/12/26 01:39:35;;;;;;;93.40;16.00;;;;;;;;;;5144275;27;20086;-83
2022/12/26 01:42:02;;;;;;;58.83;16.10;;;;;;;;;;5143273;27;20040;-83
2022/12/26 01:44:48;;;;;;;55.38;15.95;;;;;;;;;;5137989;27;20100;-83
2022/12/26 01:47:16;;;;;;;61.40;15.75;;;;;;;;;;5141584;27;20035;-82
2022/12/26 01:49:49;;;;;;;51.08;15.98;;;;;;;;;;5143803;27;20117;-83
2022/12/26 01:52:39;;;;;;;102.30;17.45;;;;;;;;;;5134907;27;20063;-83
2022/12/26 01:55:12;;;;;;;61.95;17.25;;;;;;;;;;5141737;27;20039;-83
2022/12/26 01:57:43;;;;;;;46.50;15.23;;;;;;;;;;5136408;27;20058;-82
2022/12/26 02:00:11;;;;;;;76.93;17.05;;;;;;;;;;5146545;27;20101;-82
2022/12/26 02:05:34;;;;;;;85.57;18.33;;;;;;;;;;5136539;27;20055;-83
2022/12/26 02:08:03;;;;;;;54.22;18.33;;;;;;;;;;5144220;27;20055;-83
2022/12/26 02:10:32;;;;;;;57.67;18.67;;;;;;;;;;5141579;27;20048;-83
2022/12/26 02:13:02;;;;;;;74.30;19.23;;;;;;;;;;5142555;27;20078;-83
2022/12/26 02:15:32;;;;;;;76.50;18.60;;;;;;;;;;5133721;27;20046;-82
2022/12/26 02:18:01;;;;;;;66.57;19.10;;;;;;;;;;5144060;27;20747;-83
2022/12/26 02:20:36;;;;;;;80.78;18.90;;;;;;;;;;5141275;27;20054;-83
2022/12/26 02:23:23;;;;;;;67.72;20.10;;;;;;;;;;5140841;27;20103;-82
2022/12/26 02:25:57;;;;;;;53.72;18.52;;;;;;;;;;5137626;27;20040;-83
2022/12/26 02:28:45;;;;;;;104.95;20.35;;;;;;;;;;5137682;27;20046;-83
2022/12/26 02:31:21;;;;;;;83.60;20.75;;;;;;;;;;5144651;27;20139;-82
2022/12/26 02:33:55;;;;;;;84.35;21.08;;;;;;;;;;5147270;27;20043;-83
2022/12/26 02:36:37;;;;;;;61.22;19.55;;;;;;;;;;5145551;27;20066;-83
2022/12/26 02:39:16;;;;;;;65.22;19.45;;;;;;;;;;5134080;27;20070;-83
2022/12/26 02:42:20;;;;;;;90.50;21.17;;;;;;;;;;5142599;27;20099;-84
2022/12/26 02:47:46;;;;;;;99.20;20.90;;;;;;;;;;5139412;27;21317;-83
2022/12/26 03:13:50;;;;;;;105.47;18.67;;;;;;;;;;5142537;27;20050;-83
2022/12/26 03:19:11;;;;;;;111.20;19.88;;;;;;;;;;5076401;28;20123;-83
2022/12/26 03:21:43;;;;;;;113.03;20.85;;;;;;;;;;5082348;28;20057;-82
2022/12/26 03:24:12;;;;;;;100.45;21.88;;;;;;;;;;5073516;28;20061;-83
2022/12/26 03:26:46;;;;;;;97.88;21.17;;;;;;;;;;5081244;28;20109;-82
2022/12/26 03:32:04;;;;;;;71.40;21.52;;;;;;;;;;5081283;28;20568;-82
2022/12/26 03:34:37;;;;;;;71.05;22.58;;;;;;;;;;5082124;28;20053;-83
2022/12/26 03:37:21;;;;;;;90.47;22.27;;;;;;;;;;5074491;28;20045;-83
2022/12/26 04:20:59;;;;;;;31.63;14.30;;;;;;;;;;5137117;27;20040;-82
2022/12/26 04:46:26;;;;;;;56.03;19.08;;;;;;;;;;5141765;27;21203;-83
2022/12/26 04:51:49;;;;;;;79.93;20.30;;;;;;;;;;5147145;27;20062;-83
2022/12/26 04:54:17;;;;;;;84.32;21.33;;;;;;;;;;5142559;27;20036;-82
2022/12/26 04:56:44;;;;;;;65.80;22.25;;;;;;;;;;5140715;27;20107;-83
2022/12/26 04:59:11;;;;;;;66.53;22.98;;;;;;;;;;5141975;27;20059;-83
2022/12/26 05:10:03;;;;;;;74.57;20.48;;;;;;;;;;5144020;27;20093;-83
2022/12/26 05:12:32;;;;;;;80.07;21.23;;;;;;;;;;5135468;27;20079;-83
2022/12/26 05:15:00;;;;;;;89.05;21.30;;;;;;;;;;5140555;27;20143;-83
2022/12/26 05:29:08;;;;;;;51.72;18.20;;;;;;;;;;5116315;28;20114;-83
2022/12/26 05:31:38;;;;;;;62.40;18.63;;;;;;;;;;5124689;27;20052;-83
2022/12/26 05:34:10;;;;;;;48.65;16.60;;;;;;;;;;5119050;28;20056;-83
2022/12/26 05:36:45;;;;;;;43.13;16.70;;;;;;;;;;5120349;28;20103;-82
2022/12/26 05:39:12;;;;;;;60.50;16.45;;;;;;;;;;5120246;28;20067;-83
2022/12/26 05:41:39;;;;;;;54.03;15.85;;;;;;;;;;5107569;28;20079;-82
2022/12/26 05:44:07;;;;;;;45.53;14.73;;;;;;;;;;5122621;28;21023;-82
2022/12/26 05:46:34;;;;;;;49.50;14.52;;;;;;;;;;5120128;27;20028;-83
2022/12/26 05:49:08;;;;;;;47.45;13.63;;;;;;;;;;5118742;28;20048;-83
2022/12/26 05:51:35;;;;;;;44.90;14.40;;;;;;;;;;5115117;28;20083;-83
2022/12/26 05:54:02;;;;;;;39.45;13.88;;;;;;;;;;5123027;28;20051;-83
2022/12/26 05:56:30;;;;;;;38.20;13.88;;;;;;;;;;5116947;28;20036;-82
2022/12/26 05:58:58;;;;;;;35.40;13.90;;;;;;;;;;5130213;27;20055;-83
2022/12/26 06:01:26;;;;;;;41.13;12.68;;;;;;;;;;5145408;27;20040;-83
2022/12/26 06:03:55;;;;;;;24.52;11.20;;;;;;;;;;5142860;27;20059;-83
2022/12/26 06:06:23;;;;;;;27.25;11.55;;;;;;;;;;5147596;27;20105;-84
2022/12/26 06:08:54;;;;;;;31.10;11.23;;;;;;;;;;5140545;27;20104;-83
2022/12/26 06:11:25;;;;;;;28.95;10.18;;;;;;;;;;5136294;27;20048;-82
2022/12/26 06:13:53;;;;;;;27.60;11.15;;;;;;;;;;5143642;27;20032;-83
2022/12/26 06:16:22;;;;;;;23.63;9.98;;;;;;;;;;5142608;27;20063;-83
2022/12/26 06:18:50;;;;;;;24.83;10.13;;;;;;;;;;5139985;27;20055;-83
2022/12/26 06:21:18;;;;;;;19.15;8.88;;;;;;;;;;5144017;27;21145;-83
2022/12/26 06:23:49;;;;;;;33.67;9.75;;;;;;;;;;5140835;27;20051;-83
2022/12/26 06:26:17;;;;;;;23.73;9.88;;;;;;;;;;5142147;27;20134;-83
2022/12/26 06:28:46;;;;;;;25.17;9.77;;;;;;;;;;5142189;27;20047;-83
2022/12/26 06:31:15;;;;;;;23.15;8.98;;;;;;;;;;5140360;27;20086;-83
2022/12/26 06:33:46;;;;;;;27.08;9.07;;;;;;;;;;5144880;27;20058;-83
2022/12/26 06:36:15;;;;;;;21.73;8.30;;;;;;;;;;5145679;27;20024;-82
2022/12/26 06:38:42;;;;;;;22.70;9.18;;;;;;;;;;5138256;27;20055;-83
2022/12/26 06:41:11;;;;;;;22.25;8.52;;;;;;;;;;5134233;27;20058;-83
2022/12/26 06:43:40;;;;;;;25.77;8.48;;;;;;;;;;5145550;27;20059;-83
2022/12/26 06:46:13;;;;;;;22.98;8.95;;;;;;;;;;5135619;27;20032;-83
2022/12/26 06:48:48;;;;;;;22.60;9.43;;;;;;;;;;5141012;27;20043;-83
2022/12/26 06:51:17;;;;;;;20.38;7.85;;;;;;;;;;5143231;27;20134;-83
2022/12/26 06:53:44;;;;;;;27.55;9.10;;;;;;;;;;5140604;27;20056;-82
2022/12/26 06:56:18;;;;;;;21.75;8.80;;;;;;;;;;5136513;27;20040;-83
2022/12/26 06:58:45;;;;;;;20.52;8.15;;;;;;;;;;5139791;27;20790;-83
2022/12/26 07:01:14;;;;;;;18.83;8.65;;;;;;;;;;5136504;27;20069;-83
2022/12/26 07:03:41;;;;;;;21.98;9.25;;;;;;;;;;5153926;27;20048;-83
2022/12/26 07:06:23;;;;;;;31.33;8.98;;;;;;;;;;5135122;27;20104;-83
2022/12/26 07:08:52;;;;;;;16.98;7.82;;;;;;;;;;5143441;27;20043;-83
2022/12/26 07:11:26;;;;;;;26.95;7.90;;;;;;;;;;5131721;27;20143;-83
2022/12/26 07:13:54;;;;;;;21.52;7.93;;;;;;;;;;5137569;27;20087;-82
2022/12/26 07:16:23;;;;;;;23.63;8.68;;;;;;;;;;5140611;27;20055;-83
2022/12/26 07:18:54;;;;;;;17.15;8.02;;;;;;;;;;5137583;27;20886;-83
2022/12/26 07:21:24;;;;;;;23.38;8.25;;;;;;;;;;5140941;27;20081;-82
2022/12/26 07:23:51;;;;;;;22.90;8.38;;;;;;;;;;5141134;27;20639;-83
2022/12/26 07:26:19;;;;;;;18.67;8.00;;;;;;;;;;5143764;27;20054;-83
2022/12/26 07:28:52;;;;;;;18.65;7.50;;;;;;;;;;5141903;27;20044;-83
2022/12/26 07:31:20;;;;;;;17.98;7.68;;;;;;;;;;5135421;27;20051;-83
2022/12/26 07:33:51;;;;;;;17.75;7.80;;;;;;;;;;5136653;27;20047;-83
2022/12/26 07:36:18;;;;;;;17.98;7.72;;;;;;;;;;5140494;27;20101;-83
2022/12/26 07:38:48;;;;;;;15.90;7.57;;;;;;;;;;5139554;27;20070;-83
2022/12/26 07:44:02;;;;;;;20.20;7.47;;;;;;;;;;5136084;27;20071;-83
2022/12/26 07:46:29;;;;;;;19.05;8.32;;;;;;;;;;5141670;27;20039;-83
2022/12/26 07:49:00;;;;;;;21.23;8.27;;;;;;;;;;5136152;27;20070;-83
2022/12/26 07:51:34;;;;;;;29.45;9.52;;;;;;;;;;5138138;27;20047;-83
2022/12/26 07:54:01;;;;;;;22.33;7.88;;;;;;;;;;5139234;27;20044;-83
2022/12/26 07:56:36;;;;;;;18.98;7.97;;;;;;;;;;5137476;27;20035;-83
2022/12/26 07:59:08;;;;;;;14.88;6.50;;;;;;;;;;5157721;27;20047;-83
2022/12/26 08:01:40;;;;;;;18.80;7.40;;;;;;;;;;5142478;27;20073;-83
2022/12/26 08:04:16;;;;;;;16.95;7.18;;;;;;;;;;5145760;27;20886;-83
2022/12/26 08:06:48;;;;;;;26.77;7.57;;;;;;;;;;5139594;27;20136;-83
2022/12/26 08:09:15;;;;;;;20.55;7.25;;;;;;;;;;5139928;27;20082;-83
2022/12/26 08:11:47;;;;;;;17.75;6.43;;;;;;;;;;5149951;27;20048;-82
2022/12/26 08:14:17;;;;;;;19.50;7.20;;;;;;;;;;5145434;27;20042;-83
2022/12/26 08:16:48;;;;;;;14.30;6.40;;;;;;;;;;5143294;27;20040;-83
2022/12/26 08:19:19;;;;;;;16.23;5.85;;;;;;;;;;5144479;27;20103;-83
2022/12/26 08:21:48;;;;;;;26.02;6.28;;;;;;;;;;5145331;27;20048;-83
2022/12/26 08:24:24;;;;;;;13.02;5.15;;;;;;;;;;5141739;27;20138;-83
2022/12/26 08:26:51;;;;;;;15.95;5.38;;;;;;;;;;5148466;27;20040;-83
2022/12/26 08:29:21;;;;;;;14.10;4.97;;;;;;;;;;5142964;27;20139;-83
2022/12/26 08:31:48;;;;;;;15.55;5.38;;;;;;;;;;5143505;27;20079;-82
2022/12/26 08:34:15;;;;;;;15.15;4.93;;;;;;;;;;5141661;27;20042;-82
2022/12/26 08:36:43;;;;;;;13.82;4.30;;;;;;;;;;5140530;27;20104;-82
2022/12/26 08:39:10;;;;;;;11.10;4.65;;;;;;;;;;5136468;27;20524;-83
2022/12/26 08:41:39;;;;;;;11.77;3.90;;;;;;;;;;5141322;27;20083;-83
2022/12/26 08:44:09;;;;;;;16.65;4.20;;;;;;;;;;5139270;27;20050;-83
2022/12/26 08:47:00;;;;;;;11.35;3.72;;;;;;;;;;5139182;27;20087;-83
2022/12/26 08:49:29;;;;;;;14.93;4.55;;;;;;;;;;5138663;27;20113;-82
2022/12/26 08:51:56;;;;;;;12.45;4.50;;;;;;;;;;5145282;27;20107;-82
2022/12/26 08:54:26;;;;;;;14.70;4.03;;;;;;;;;;5137011;27;20112;-83
2022/12/26 08:56:53;;;;;;;9.55;3.53;;;;;;;;;;5141030;27;20059;-82
2022/12/26 08:59:25;;;;;;;9.05;3.85;;;;;;;;;;5141859;27;20048;-82
2022/12/26 09:01:53;;;;;;;14.88;3.65;;;;;;;;;;5140302;27;20063;-82
2022/12/26 09:04:28;;;;;;;10.48;4.25;;;;;;;;;;5132801;27;20040;-82
2022/12/26 09:07:01;;;;;;;13.07;3.80;;;;;;;;;;5141710;27;20061;-82
2022/12/26 09:09:28;;;;;;;13.10;3.55;;;;;;;;;;5136108;27;20112;-83
2022/12/26 09:11:55;;;;;;;9.55;3.25;;;;;;;;;;5143815;27;20043;-82
2022/12/26 09:14:23;;;;;;;12.57;3.17;;;;;;;;;;5142440;27;20044;-83
2022/12/26 09:16:51;;;;;;;7.65;2.83;;;;;;;;;;5141042;27;20530;-81
2022/12/26 09:19:19;;;;;;;8.23;2.97;;;;;;;;;;5140495;27;20085;-82
2022/12/26 09:22:49;;;;;;;9.57;3.17;;;;;;;;;;5140966;27;20051;-82
2022/12/26 09:24:40;;;;;;;10.88;3.20;;;;;;;;;;5144507;27;20054;-82
2022/12/26 09:27:09;;;;;;;9.65;3.25;;;;;;;;;;5141980;27;20024;-82
2022/12/26 09:29:38;;;;;;;7.57;3.63;;;;;;;;;;5141734;27;20376;-82
2022/12/26 09:32:07;;;;;;;7.38;3.47;;;;;;;;;;5140077;27;20093;-83
2022/12/26 09:34:34;;;;;;;5.90;3.00;;;;;;;;;;5136775;27;20048;-83
2022/12/26 09:37:03;;;;;;;7.65;2.90;;;;;;;;;;5139111;27;20048;-82
2022/12/26 09:39:30;;;;;;;10.25;2.92;;;;;;;;;;5137609;27;20935;-83
2022/12/26 09:42:16;;;;;;;8.45;2.75;;;;;;;;;;5140606;27;20131;-82
2022/12/26 09:44:53;;;;;;;13.63;3.00;;;;;;;;;;5142260;27;20051;-82
2022/12/26 09:47:44;;;;;;;12.85;2.90;;;;;;;;;;5139346;27;20048;-83
2022/12/26 09:50:40;;;;;;;8.82;2.33;;;;;;;;;;5153072;27;20089;-83
2022/12/26 09:53:15;;;;;;;10.52;2.70;;;;;;;;;;5126603;27;20482;-83
2022/12/26 09:55:42;;;;;;;11.83;3.00;;;;;;;;;;5132423;27;20044;-83
2022/12/26 09:58:15;;;;;;;12.65;2.60;;;;;;;;;;5138199;27;20803;-83
2022/12/26 10:00:50;;;;;;;15.95;2.92;;;;;;;;;;5138000;27;20048;-83
2022/12/26 10:03:19;;;;;;;7.38;1.67;;;;;;;;;;5133129;27;20138;-82
2022/12/26 10:06:04;;;;;;;16.20;2.20;;;;;;;;;;5137022;27;20052;-83
2022/12/26 10:08:33;;;;;;;16.58;2.60;;;;;;;;;;5134807;27;20066;-82
2022/12/26 10:11:03;;;;;;;16.13;2.15;;;;;;;;;;5134732;27;20146;-83
2022/12/26 10:13:37;;;;;;;16.20;2.55;;;;;;;;;;5136057;27;20086;-82
2022/12/26 10:16:08;;;;;;;15.02;2.10;;;;;;;;;;5137635;27;20063;-83
2022/12/26 10:18:52;;;;;;;10.75;1.55;;;;;;;;;;5134583;27;20056;-83
2022/12/26 10:21:27;;;;;;;16.67;2.40;;;;;;;;;;5134298;27;20068;-82
2022/12/26 10:24:00;;;;;;;13.45;1.80;;;;;;;;;;5135269;27;20051;-83
2022/12/26 10:26:36;;;;;;;9.40;1.75;;;;;;;;;;5147099;27;20997;-83
2022/12/26 10:29:03;;;;;;;20.63;2.85;;;;;;;;;;5132587;27;20919;-83
2022/12/26 10:31:34;;;;;;;11.50;1.75;;;;;;;;;;5134595;27;20058;-83
2022/12/26 10:34:17;;;;;;;9.77;1.88;;;;;;;;;;5137074;27;20079;-84
2022/12/26 10:36:47;;;;;;;14.57;1.75;;;;;;;;;;5135662;27;20052;-82
2022/12/26 10:39:19;;;;;;;12.02;1.85;;;;;;;;;;5136302;27;20150;-82
2022/12/26 10:41:53;;;;;;;10.88;1.95;;;;;;;;;;5130668;27;20077;-83
2022/12/26 10:44:22;;;;;;;15.93;2.40;;;;;;;;;;5132168;27;20221;-82
2022/12/26 10:46:53;;;;;;;10.50;1.65;;;;;;;;;;5129380;27;20048;-83
2022/12/26 10:49:22;;;;;;;14.90;1.80;;;;;;;;;;5131376;27;20120;-82
2022/12/26 10:51:53;;;;;;;8.25;1.60;;;;;;;;;;5134479;27;20048;-83
2022/12/26 10:54:20;;;;;;;19.90;2.50;;;;;;;;;;5132972;27;20048;-82
2022/12/26 10:56:50;;;;;;;16.45;1.65;;;;;;;;;;5135016;27;20112;-82
2022/12/26 10:59:22;;;;;;;12.13;2.05;;;;;;;;;;5138317;27;20035;-82
2022/12/26 11:01:50;;;;;;;15.30;2.05;;;;;;;;;;5140082;27;20104;-82
2022/12/26 11:04:21;;;;;;;15.23;2.13;;;;;;;;;;5134534;27;20044;-82
2022/12/26 11:07:10;;;;;;;14.57;1.55;;;;;;;;;;5136129;27;20544;-83
2022/12/26 11:09:39;;;;;;;10.70;1.50;;;;;;;;;;5135197;27;20886;-82
2022/12/26 11:12:17;;;;;;;11.52;1.77;;;;;;;;;;5135590;27;20044;-83
2022/12/26 11:14:45;;;;;;;12.73;1.58;;;;;;;;;;5139323;27;20051;-81
2022/12/26 11:17:29;;;;;;;14.50;1.75;;;;;;;;;;5135110;27;20523;-82
2022/12/26 11:20:15;;;;;;;4.90;1.23;;;;;;;;;;5131993;27;20076;-82
2022/12/26 11:22:43;;;;;;;12.55;1.17;;;;;;;;;;5136355;27;20051;-82
2022/12/26 11:25:21;;;;;;;13.00;2.00;;;;;;;;;;5136059;27;20044;-83
2022/12/26 11:27:55;;;;;;;8.55;1.30;;;;;;;;;;5131409;27;20060;-85
2022/12/26 11:30:25;;;;;;;8.63;1.38;;;;;;;;;;5133408;27;20048;-84
2022/12/26 11:33:11;;;;;;;14.13;1.48;;;;;;;;;;5139615;27;20052;-82
2022/12/26 11:35:56;;;;;;;7.88;1.20;;;;;;;;;;5138560;27;20059;-84
2022/12/26 11:38:34;;;;;;;7.43;1.02;;;;;;;;;;5132380;27;20365;-83
2022/12/26 11:41:32;;;;;;;11.35;1.40;;;;;;;;;;5126436;27;20027;-82
2022/12/26 11:44:16;;;;;;;7.97;1.75;;;;;;;;;;5132846;27;20040;-82
2022/12/26 11:46:58;;;;;;;10.13;1.38;;;;;;;;;;5127264;27;20067;-82
2022/12/26 11:49:29;;;;;;;10.02;1.10;;;;;;;;;;5130890;27;20132;-82
2022/12/26 11:51:57;;;;;;;8.65;1.20;;;;;;;;;;5131783;27;20051;-83
2022/12/26 11:54:26;;;;;;;11.20;1.50;;;;;;;;;;5134235;27;20044;-83
2022/12/26 11:57:01;;;;;;;4.68;0.93;;;;;;;;;;5140788;27;20074;-83
2022/12/26 11:59:30;;;;;;;6.97;1.05;;;;;;;;;;5138146;27;20432;-83
2022/12/26 12:02:12;;;;;;;11.13;1.50;;;;;;;;;;5136051;27;20048;-82
2022/12/26 12:04:43;;;;;;;15.32;1.23;;;;;;;;;;5122600;27;20094;-83
2022/12/26 12:07:18;;;;;;;8.98;1.48;;;;;;;;;;5130063;27;20110;-83
2022/12/26 12:09:55;;;;;;;4.93;0.98;;;;;;;;;;5132908;27;20108;-83
2022/12/26 12:12:26;;;;;;;13.27;1.30;;;;;;;;;;5128202;27;20032;-82
2022/12/26 12:14:53;;;;;;;7.45;1.30;;;;;;;;;;5133171;27;20113;-83
2022/12/26 12:17:39;;;;;;;9.18;1.48;;;;;;;;;;5129909;27;20067;-82
2022/12/26 12:20:07;;;;;;;9.55;1.17;;;;;;;;;;5130335;27;20052;-82
2022/12/26 12:22:38;;;;;;;6.95;1.05;;;;;;;;;;5127621;27;20042;-82
2022/12/26 12:25:21;;;;;;;5.85;0.95;;;;;;;;;;5128593;27;20111;-82
2022/12/26 12:27:54;;;;;;;4.97;1.30;;;;;;;;;;5127555;27;20040;-82
2022/12/26 12:30:39;;;;;;;7.90;1.45;;;;;;;;;;5132338;27;20891;-83
2022/12/26 12:33:16;;;;;;;7.55;1.42;;;;;;;;;;5126818;27;20036;-82
2022/12/26 12:36:02;;;;;;;6.05;1.45;;;;;;;;;;5133641;27;20056;-81
2022/12/26 12:38:36;;;;;;;3.80;0.90;;;;;;;;;;5127750;27;20117;-81
2022/12/26 12:41:03;;;;;;;;;;;;;;;;;;5134000;27;20040;-82
2022/12/26 12:43:49;;;;;;;5.43;1.00;;;;;;;;;;5134545;27;44741;-82
2022/12/26 12:46:16;;;;;;;9.70;1.27;;;;;;;;;;5137248;27;20043;-81
2022/12/26 12:49:01;;;;;;;12.52;1.25;;;;;;;;;;5144848;27;20039;-82
2022/12/26 12:51:28;;;;;;;3.15;0.90;;;;;;;;;;5133964;27;20094;-81
2022/12/26 12:53:55;;;;;;;5.53;1.02;;;;;;;;;;5134199;27;20066;-82
2022/12/26 12:56:32;;;;;;;6.47;1.05;;;;;;;;;;5136479;27;20083;-82
2022/12/26 12:59:26;;;;;;;11.63;1.75;;;;;;;;;;5133762;27;20870;-82
2022/12/26 13:01:55;;;;;;;6.82;1.17;;;;;;;;;;5131273;27;20044;-81
2022/12/26 13:04:34;;;;;;;7.75;1.08;;;;;;;;;;5138975;27;20109;-82
2022/12/26 13:07:10;;;;;;;2.88;0.70;;;;;;;;;;5139207;27;20044;-82
2022/12/26 13:09:50;;;;;;;4.68;0.77;;;;;;;;;;5141746;27;20044;-82
2022/12/26 13:12:37;;;;;;;4.90;1.00;;;;;;;;;;5131884;27;20605;-82
2022/12/26 13:15:13;;;;;;;6.25;1.48;;;;;;;;;;5136832;27;20044;-82
2022/12/26 13:17:53;;;;;;;5.55;1.20;;;;;;;;;;5135680;27;20052;-82
2022/12/26 13:20:23;;;;;;;3.03;0.98;;;;;;;;;;5139197;27;20036;-82
2022/12/26 13:25:44;;;;;;;13.55;1.55;;;;;;;;;;5139487;27;20054;-83
2022/12/26 13:28:15;;;;;;;7.03;1.15;;;;;;;;;;5140189;27;20138;-83
2022/12/26 13:30:42;;;;;;;3.95;1.10;;;;;;;;;;5130348;27;20088;-83
2022/12/26 13:33:12;;;;;;;6.65;1.38;;;;;;;;;;5137968;27;20147;-83
2022/12/26 13:35:51;;;;;;;11.25;1.60;;;;;;;;;;5133933;27;20035;-81
2022/12/26 13:38:19;;;;;;;8.63;1.63;;;;;;;;;;5138071;27;20063;-82
2022/12/26 13:40:47;;;;;;;8.63;1.40;;;;;;;;;;5136871;27;20111;-83
2022/12/26 13:46:47;;;;;;;3.13;1.33;;;;;;;;;;5137085;27;20059;-83
2022/12/26 13:49:29;;;;;;;5.88;1.25;;;;;;;;;;5097591;28;20052;-82
2022/12/26 13:51:58;;;;;;;6.72;1.33;;;;;;;;;;5096822;28;20048;-83
2022/12/26 13:54:26;;;;;;;3.45;1.17;;;;;;;;;;5093908;28;20036;-82
2022/12/26 13:56:59;;;;;;;2.95;1.00;;;;;;;;;;5091614;28;20041;-81
2022/12/26 13:59:33;;;;;;;8.23;1.20;;;;;;;;;;5100730;28;20048;-82
2022/12/26 14:02:27;;;;;;;5.72;1.35;;;;;;;;;;5091189;28;20122;-82
2022/12/26 14:05:22;;;;;;;6.80;1.15;;;;;;;;;;5067768;28;20049;-83
2022/12/26 14:08:10;;;;;;;4.43;1.50;;;;;;;;;;5089639;28;20547;-83
2022/12/26 14:10:42;;;;;;;9.75;1.48;;;;;;;;;;5087903;28;20112;-83
2022/12/26 14:13:29;;;;;;;3.13;1.00;;;;;;;;;;5087456;28;21402;-83
2022/12/26 14:15:59;;;;;;;6.80;1.08;;;;;;;;;;5084544;28;20049;-83
2022/12/26 14:18:44;;;;;;;9.38;1.95;;;;;;;;;;5088013;28;20055;-82
2022/12/26 14:21:30;;;;;;;7.10;1.90;;;;;;;;;;5128493;27;20529;-82
2022/12/26 14:24:01;;;;;;;18.80;1.52;;;;;;;;;;5125377;27;20050;-82
2022/12/26 14:26:47;;;;;;;6.18;1.20;;;;;;;;;;5129392;27;20047;-82
2022/12/26 14:29:21;;;;;;;6.22;1.35;;;;;;;;;;5124301;27;20056;-82
2022/12/26 14:31:51;;;;;;;6.43;1.50;;;;;;;;;;5128919;27;20048;-83
2022/12/26 14:34:37;;;;;;;11.35;1.70;;;;;;;;;;5124458;27;20063;-83
2022/12/26 14:37:23;;;;;;;8.32;1.67;;;;;;;;;;5129953;27;20035;-83
2022/12/26 14:39:59;;;;;;;5.90;1.30;;;;;;;;;;5129903;27;20116;-83
2022/12/26 14:45:20;;;;;;;7.10;1.50;;;;;;;;;;5120101;27;20090;-83
2022/12/26 14:47:56;;;;;;;9.95;1.40;;;;;;;;;;5130213;27;20039;-83
2022/12/26 14:50:42;;;;;;;8.70;1.35;;;;;;;;;;5129358;27;20134;-83
2022/12/26 14:53:32;;;;;;;7.47;1.17;;;;;;;;;;5129228;27;20047;-82
2022/12/26 14:56:01;;;;;;;5.53;1.60;;;;;;;;;;5128774;27;20063;-83
2022/12/26 14:58:30;;;;;;;3.55;1.10;;;;;;;;;;5128567;27;20108;-83
2022/12/26 15:01:21;;;;;;;7.25;1.27;;;;;;;;;;5131948;27;20048;-84
2022/12/26 15:04:07;;;;;;;11.00;1.23;;;;;;;;;;5129168;27;20296;-83
2022/12/26 15:06:47;;;;;;;7.38;1.58;;;;;;;;;;5133357;27;20055;-83
2022/12/26 15:09:38;;;;;;;7.07;1.50;;;;;;;;;;5131502;27;20043;-83
2022/12/26 15:12:08;;;;;;;7.45;1.33;;;;;;;;;;5128405;27;20952;-83
2022/12/26 15:14:47;;;;;;;10.15;1.88;;;;;;;;;;5133648;27;20039;-83
2022/12/26 15:17:20;;;;;;;8.68;1.63;;;;;;;;;;5131227;27;20035;-82
2022/12/26 15:20:06;;;;;;;12.63;1.70;;;;;;;;;;5125156;27;20134;-82
2022/12/26 15:22:53;;;;;;;9.02;1.30;;;;;;;;;;5127777;27;20877;-82
2022/12/26 15:25:37;;;;;;;16.55;1.50;;;;;;;;;;5123548;27;21227;-82
2022/12/26 15:28:18;;;;;;;11.27;1.60;;;;;;;;;;5120372;27;20142;-83
2022/12/26 15:31:09;;;;;;;8.80;1.20;;;;;;;;;;5124670;27;20040;-82
2022/12/26 15:33:41;;;;;;;8.77;1.27;;;;;;;;;;5128324;27;20054;-83
2022/12/26 15:36:11;;;;;;;8.05;1.50;;;;;;;;;;5129595;27;20052;-82
2022/12/26 15:38:42;;;;;;;6.53;1.20;;;;;;;;;;5126908;27;20289;-82
2022/12/26 15:41:12;;;;;;;5.97;1.35;;;;;;;;;;5120349;27;20035;-83
2022/12/26 15:43:46;;;;;;;9.07;1.35;;;;;;;;;;5127577;27;20345;-82
2022/12/26 15:46:19;;;;;;;6.63;1.58;;;;;;;;;;5129060;27;20071;-82
2022/12/26 15:48:51;;;;;;;3.58;1.10;;;;;;;;;;5132870;27;20103;-82
2022/12/26 15:51:24;;;;;;;2.53;0.65;;;;;;;;;;5134083;27;20047;-82
2022/12/26 15:54:06;;;;;;;6.32;1.33;;;;;;;;;;5128890;27;20051;-83
2022/12/26 15:56:56;;;;;;;9.63;1.77;;;;;;;;;;5131071;27;20101;-82
2022/12/26 15:59:42;;;;;;;11.88;1.83;;;;;;;;;;5127064;27;20047;-82
2022/12/26 16:02:14;;;;;;;7.95;1.83;;;;;;;;;;5132277;27;20142;-82
2022/12/26 16:04:49;;;;;;;14.85;2.60;;;;;;;;;;5132779;27;20086;-82
2022/12/26 16:07:34;;;;;;;6.50;2.13;;;;;;;;;;5108712;27;20110;-82
2022/12/26 16:10:02;;;;;;;13.32;3.08;;;;;;;;;;5133727;27;20074;-82
2022/12/26 16:12:31;;;;;;;10.48;3.78;;;;;;;;;;5132936;27;20120;-83
2022/12/26 16:15:01;;;;;;;11.80;3.20;;;;;;;;;;5133530;27;20047;-82
2022/12/26 16:17:28;;;;;;;12.80;2.65;;;;;;;;;;5131117;27;20056;-82
2022/12/26 16:19:56;;;;;;;15.75;2.85;;;;;;;;;;5135330;27;20045;-82
2022/12/26 16:22:48;;;;;;;8.27;1.90;;;;;;;;;;5131778;27;20044;-82
2022/12/26 16:25:24;;;;;;;10.15;2.30;;;;;;;;;;5149403;27;20137;-81
2022/12/26 16:27:56;;;;;;;12.70;2.80;;;;;;;;;;5136344;27;20074;-82
2022/12/26 16:30:25;;;;;;;10.32;3.10;;;;;;;;;;5137298;27;20048;-81
2022/12/26 16:32:53;;;;;;;10.07;2.40;;;;;;;;;;5152307;27;20100;-82
2022/12/26 16:35:24;;;;;;;6.80;2.40;;;;;;;;;;5140792;27;20036;-82
2022/12/26 16:37:52;;;;;;;13.93;2.35;;;;;;;;;;5141405;27;20142;-82
2022/12/26 16:40:20;;;;;;;8.35;2.47;;;;;;;;;;5134860;27;20571;-81
2022/12/26 16:42:55;;;;;;;16.48;2.85;;;;;;;;;;5125710;27;20090;-82
2022/12/26 16:45:24;;;;;;;16.95;2.10;;;;;;;;;;5131081;27;20078;-82
2022/12/26 16:47:52;;;;;;;14.10;2.40;;;;;;;;;;5138089;27;20048;-81
2022/12/26 16:50:20;;;;;;;7.80;1.77;;;;;;;;;;5130645;27;20040;-82
2022/12/26 16:52:51;;;;;;;9.88;1.73;;;;;;;;;;5126038;27;20106;-81
2022/12/26 16:55:30;;;;;;;8.27;1.77;;;;;;;;;;5137826;27;20896;-82
2022/12/26 16:57:59;;;;;;;12.35;2.05;;;;;;;;;;5125351;27;20052;-82
2022/12/26 17:00:26;;;;;;;6.55;1.85;;;;;;;;;;5136185;27;20497;-82
2022/12/26 17:02:56;;;;;;;8.13;1.90;;;;;;;;;;5132868;27;20989;-82
2022/12/26 17:05:26;;;;;;;6.45;1.60;;;;;;;;;;5132226;27;20037;-82
2022/12/26 17:07:55;;;;;;;9.95;2.13;;;;;;;;;;5139332;27;20341;-81
2022/12/26 17:10:25;;;;;;;12.73;2.10;;;;;;;;;;5135725;27;20135;-81
2022/12/26 17:12:53;;;;;;;10.68;2.47;;;;;;;;;;5140386;27;21255;-82
2022/12/26 17:15:22;;;;;;;9.73;2.95;;;;;;;;;;5136704;27;20039;-81
2022/12/26 17:17:49;;;;;;;9.70;2.25;;;;;;;;;;5135207;27;20044;-82